Terminal Aerodrome Forecast
Issued by NWS

Home | Current Version | Previous Version | Text Only | Print | Product List | Glossary On
Versions: 1 2 3 4 5 6 7 8 9 10 11 12 13 14 15 16 17 18 19 20
000
FTUS43 KGRR 142300
TAFJXN
TAF
KJXN 142326Z 1500/1524 25004KT P6SM FEW045
     FM150100 VRB03KT P6SM SKC
     FM151000 17003KT P6SM OVC160
     FM151600 21009KT P6SM -RA OVC035
     FM152100 24010KT 4SM -RA BR OVC025
     FM152300 29007KT 2SM RA BR OVC015=

USA.gov is the U.S. government's official web portal to all federal, state and local government web resources and services.